createdAt,value
2023-05-20T00:01:59.102Z,13.50
2023-05-20T00:04:45.537Z,13.40
2023-05-20T00:07:33.245Z,13.40
2023-05-20T00:10:20.025Z,13.40
2023-05-20T00:13:07.574Z,13.50
2023-05-20T00:15:55.587Z,13.50
2023-05-20T00:18:42.590Z,13.60
2023-05-20T00:21:29.641Z,13.50
2023-05-20T00:24:15.956Z,13.40
2023-05-20T00:27:03.455Z,13.30
2023-05-20T00:29:50.667Z,13.30
2023-05-20T00:32:38.659Z,13.20
2023-05-20T00:35:26.652Z,13.00
2023-05-20T00:38:13.550Z,12.80
2023-05-20T00:40:59.928Z,12.70
2023-05-20T00:43:46.626Z,12.70
2023-05-20T00:46:33.778Z,12.80
2023-05-20T00:49:22.661Z,12.70
2023-05-20T00:52:09.591Z,12.80
2023-05-20T00:54:56.115Z,12.80
2023-05-20T00:57:42.714Z,12.80
2023-05-20T01:00:29.490Z,12.80
2023-05-20T01:03:16.826Z,12.80
2023-05-20T01:06:05.255Z,12.80
2023-05-20T01:08:52.054Z,12.80
2023-05-20T01:11:45.907Z,12.80
2023-05-20T01:14:38.793Z,12.90
2023-05-20T01:17:27.440Z,12.80
2023-05-20T01:20:15.996Z,12.80
2023-05-20T01:23:04.166Z,12.70
2023-05-20T01:25:50.731Z,12.90
2023-05-20T01:28:39.280Z,13.00
2023-05-20T01:31:28.637Z,12.90
2023-05-20T01:34:15.836Z,13.00
2023-05-20T01:37:04.213Z,12.90
2023-05-20T01:39:52.873Z,12.80
2023-05-20T01:42:40.774Z,12.90
2023-05-20T01:45:27.584Z,12.90
2023-05-20T01:48:14.980Z,12.90
2023-05-20T01:51:01.993Z,13.00
2023-05-20T01:53:48.895Z,13.00
2023-05-20T01:56:37.124Z,12.90
2023-05-20T01:59:24.029Z,13.00
2023-05-20T02:02:10.909Z,13.10
2023-05-20T02:04:57.717Z,13.20
2023-05-20T02:07:44.348Z,13.30
2023-05-20T02:10:31.182Z,13.30
2023-05-20T02:13:19.452Z,13.40
2023-05-20T02:16:06.946Z,13.40
2023-05-20T02:18:53.687Z,13.40
2023-05-20T02:21:41.169Z,13.40
2023-05-20T02:24:28.039Z,13.40
2023-05-20T02:27:15.235Z,13.40
2023-05-20T02:30:03.596Z,13.40
2023-05-20T02:32:50.426Z,13.40
2023-05-20T02:35:37.732Z,13.40
2023-05-20T02:38:24.222Z,13.40
2023-05-20T02:41:10.912Z,13.40
2023-05-20T02:43:57.860Z,13.40
2023-05-20T02:46:45.936Z,13.40
2023-05-20T02:49:32.731Z,13.40
2023-05-20T02:52:19.671Z,13.40
2023-05-20T02:55:07.673Z,13.40
2023-05-20T02:57:54.179Z,13.40
2023-05-20T03:00:41.711Z,13.40
2023-05-20T03:03:29.959Z,13.40
2023-05-20T03:06:16.574Z,13.30
2023-05-20T03:09:03.490Z,13.40
2023-05-20T03:11:50.394Z,13.30
2023-05-20T03:14:37.133Z,13.40
2023-05-20T03:17:24.003Z,13.40
2023-05-20T03:20:13.237Z,13.50
2023-05-20T03:23:02.121Z,13.50
2023-05-20T03:25:49.263Z,13.50
2023-05-20T03:28:36.970Z,13.50
2023-05-20T03:31:23.823Z,13.50
2023-05-20T03:34:10.670Z,13.50
2023-05-20T03:37:00.296Z,13.60
2023-05-20T03:39:47.132Z,13.50
2023-05-20T03:42:34.913Z,13.50
2023-05-20T03:45:21.974Z,13.50
2023-05-20T03:48:21.983Z,13.50
2023-05-20T03:51:09.012Z,13.40
2023-05-20T03:53:57.128Z,13.40
2023-05-20T03:56:43.884Z,13.40
2023-05-20T03:59:31.007Z,13.40
2023-05-20T04:02:18.272Z,13.50
2023-05-20T04:05:05.071Z,13.60
2023-05-20T04:07:53.398Z,13.80
2023-05-20T04:10:43.798Z,13.70
2023-05-20T04:13:31.554Z,13.80
2023-05-20T04:16:18.417Z,13.80
2023-05-20T04:19:05.326Z,13.90
2023-05-20T04:21:52.270Z,13.90
2023-05-20T04:24:39.146Z,13.90
2023-05-20T04:27:27.239Z,14.00
2023-05-20T04:30:14.265Z,14.20
2023-05-20T04:33:03.547Z,14.30
2023-05-20T04:35:52.372Z,14.30
2023-05-20T04:38:40.086Z,14.30
2023-05-20T04:41:27.348Z,14.50
2023-05-20T04:44:15.336Z,14.60
2023-05-20T04:47:02.202Z,14.60
2023-05-20T04:49:50.284Z,14.50
2023-05-20T04:52:37.316Z,14.50
2023-05-20T04:55:27.469Z,14.50
2023-05-20T04:58:15.621Z,14.50
2023-05-20T05:01:03.845Z,14.60
2023-05-20T05:03:50.774Z,14.70
2023-05-20T05:06:37.612Z,14.70
2023-05-20T05:09:24.492Z,14.80
2023-05-20T05:12:12.421Z,14.90
2023-05-20T05:14:59.397Z,14.90
2023-05-20T05:17:48.608Z,15.00
2023-05-20T05:20:35.804Z,15.20
2023-05-20T05:23:22.790Z,15.20
2023-05-20T05:26:09.707Z,15.20
2023-05-20T05:28:56.579Z,15.20
2023-05-20T05:31:43.523Z,15.30
2023-05-20T05:34:31.830Z,15.20
2023-05-20T05:37:18.548Z,15.30
2023-05-20T05:40:06.964Z,15.40
2023-05-20T05:42:53.822Z,15.50
2023-05-20T05:45:42.913Z,15.70
2023-05-20T05:48:29.449Z,15.90
2023-05-20T05:51:18.194Z,16.30
2023-05-20T05:54:06.571Z,16.20
2023-05-20T05:56:53.840Z,16.20
2023-05-20T05:59:40.974Z,16.10
2023-05-20T06:02:28.809Z,16.10
2023-05-20T06:05:15.779Z,16.00
2023-05-20T06:08:04.190Z,15.90
2023-05-20T06:10:53.160Z,16.10
2023-05-20T06:13:39.998Z,16.20
2023-05-20T06:16:27.133Z,16.10
2023-05-20T06:19:13.963Z,16.10
2023-05-20T06:22:00.726Z,16.00
2023-05-20T06:24:48.990Z,16.10
2023-05-20T06:27:36.133Z,16.20
2023-05-20T06:30:24.087Z,16.30
2023-05-20T06:33:11.600Z,16.40
2023-05-20T06:36:01.526Z,16.50
2023-05-20T06:38:48.903Z,16.70
2023-05-20T06:41:37.580Z,16.80
2023-05-20T06:44:28.936Z,17.10
2023-05-20T06:47:21.370Z,17.50
2023-05-20T06:50:11.772Z,17.60
2023-05-20T06:52:58.454Z,17.30
2023-05-20T06:55:45.418Z,17.30
2023-05-20T06:58:33.975Z,17.40
2023-05-20T07:01:20.807Z,17.50
2023-05-20T07:04:07.779Z,18.40
2023-05-20T07:06:54.822Z,19.70
2023-05-20T07:09:41.305Z,19.90
2023-05-20T07:12:28.204Z,20.30
2023-05-20T07:15:17.896Z,19.50
2023-05-20T07:18:04.980Z,19.60
2023-05-20T07:20:52.190Z,20.40
2023-05-20T07:23:53.201Z,20.10
2023-05-20T07:26:39.858Z,20.50
2023-05-20T07:29:26.530Z,20.60
2023-05-20T07:32:14.963Z,20.80
2023-05-20T07:35:02.494Z,20.60
2023-05-20T07:37:49.485Z,19.80
2023-05-20T07:40:36.875Z,19.90
2023-05-20T07:43:24.077Z,19.70
2023-05-20T07:46:11.112Z,20.20
2023-05-20T07:48:59.300Z,20.10
2023-05-20T07:51:46.945Z,19.20
2023-05-20T07:54:36.710Z,19.10
2023-05-20T07:57:23.261Z,18.90
2023-05-20T08:00:12.068Z,19.30
2023-05-20T08:03:03.955Z,19.40
2023-05-20T08:06:03.382Z,19.30
2023-05-20T08:08:50.164Z,19.00
2023-05-20T08:11:41.803Z,19.10
2023-05-20T08:14:28.471Z,18.80
2023-05-20T08:17:15.594Z,19.30
2023-05-20T08:20:02.814Z,20.20
2023-05-20T08:22:50.897Z,21.10
2023-05-20T08:25:38.192Z,21.40
2023-05-20T08:28:25.439Z,20.80
2023-05-20T08:31:12.359Z,20.30
2023-05-20T08:34:00.558Z,21.10
2023-05-20T08:36:47.758Z,21.40
2023-05-20T08:39:35.957Z,21.20
2023-05-20T08:42:24.524Z,20.40
2023-05-20T08:45:13.891Z,20.40
2023-05-20T08:48:02.266Z,20.40
2023-05-20T08:50:54.003Z,20.50
2023-05-20T08:53:41.194Z,20.20
2023-05-20T08:56:30.939Z,20.60
2023-05-20T08:59:19.105Z,21.00
2023-05-20T09:02:06.117Z,20.50
2023-05-20T09:04:53.952Z,20.80
2023-05-20T09:07:42.689Z,20.60
2023-05-20T09:10:29.822Z,20.60
2023-05-20T09:13:17.628Z,20.20
2023-05-20T09:16:04.791Z,20.00
2023-05-20T09:18:52.395Z,19.80
2023-05-20T09:21:39.926Z,20.00
2023-05-20T09:24:27.505Z,20.90
2023-05-20T09:27:14.417Z,21.40
2023-05-20T09:30:02.659Z,22.10
2023-05-20T09:32:55.067Z,22.70
2023-05-20T09:35:42.684Z,23.10
2023-05-20T09:38:35.375Z,23.10
2023-05-20T09:41:25.843Z,22.30
2023-05-20T09:44:13.012Z,21.60
2023-05-20T09:47:02.342Z,20.90
2023-05-20T09:49:51.464Z,21.40
2023-05-20T09:52:39.993Z,22.50
2023-05-20T09:55:26.742Z,23.10
2023-05-20T09:58:16.442Z,23.10
2023-05-20T10:01:03.075Z,22.50
2023-05-20T10:03:52.075Z,22.20
2023-05-20T10:07:00.214Z,21.60
2023-05-20T10:09:57.779Z,21.20
2023-05-20T10:12:56.860Z,21.00
2023-05-20T10:15:52.715Z,21.50
2023-05-20T10:18:50.173Z,22.10
2023-05-20T10:21:39.231Z,21.60
2023-05-20T10:24:32.078Z,21.90
2023-05-20T10:27:19.638Z,22.40
2023-05-20T10:30:17.357Z,22.50
2023-05-20T10:33:07.093Z,22.10
2023-05-20T10:35:55.000Z,21.60
2023-05-20T10:38:56.375Z,21.80
2023-05-20T10:41:43.205Z,22.60
2023-05-20T10:44:30.070Z,22.60
2023-05-20T10:47:25.343Z,22.10
2023-05-20T10:50:28.689Z,22.40
2023-05-20T10:53:29.391Z,23.00
2023-05-20T10:56:21.412Z,23.20
2023-05-20T10:59:08.511Z,22.80
2023-05-20T11:01:56.086Z,22.50
2023-05-20T11:04:44.536Z,22.30
2023-05-20T11:07:32.596Z,21.90
2023-05-20T11:10:19.060Z,21.90
2023-05-20T11:13:08.266Z,21.80
2023-05-20T11:15:55.541Z,22.10
2023-05-20T11:18:42.458Z,22.50
2023-05-20T11:21:29.413Z,22.30
2023-05-20T11:24:23.155Z,21.90
2023-05-20T11:27:10.265Z,21.70
2023-05-20T11:29:58.369Z,21.70
2023-05-20T11:32:45.705Z,21.70
2023-05-20T11:35:33.380Z,21.60
2023-05-20T11:38:21.524Z,21.40
2023-05-20T11:41:08.449Z,21.50
2023-05-20T11:43:59.232Z,21.40
2023-05-20T11:46:48.985Z,21.50
2023-05-20T11:49:41.506Z,21.80
2023-05-20T11:52:30.252Z,21.90
2023-05-20T11:55:17.597Z,22.30
2023-05-20T11:58:04.847Z,22.50
2023-05-20T12:00:57.100Z,22.80
2023-05-20T12:03:47.618Z,22.90
2023-05-20T12:06:34.194Z,22.40
2023-05-20T12:09:20.715Z,22.20
2023-05-20T12:12:08.418Z,21.90
2023-05-20T12:14:54.997Z,22.10
2023-05-20T12:17:49.607Z,22.40
2023-05-20T12:20:37.972Z,22.60
2023-05-20T12:23:25.085Z,22.60
2023-05-20T12:26:11.908Z,22.10
2023-05-20T12:28:58.838Z,22.00
2023-05-20T12:31:45.794Z,22.10
2023-05-20T12:34:33.180Z,22.30
2023-05-20T12:37:21.163Z,22.50
2023-05-20T12:40:09.089Z,22.40
2023-05-20T12:42:55.650Z,22.30
2023-05-20T12:45:42.144Z,22.10
2023-05-20T12:48:28.958Z,22.10
2023-05-20T12:51:15.958Z,22.10
2023-05-20T12:54:04.261Z,22.20
2023-05-20T12:56:50.807Z,22.40
2023-05-20T12:59:37.755Z,22.30
2023-05-20T13:02:24.766Z,22.20
2023-05-20T13:05:12.334Z,22.50
2023-05-20T13:07:58.878Z,22.40
2023-05-20T13:10:47.154Z,22.40
2023-05-20T13:13:33.983Z,22.50
2023-05-20T13:16:20.781Z,22.50
2023-05-20T13:19:07.370Z,22.50
2023-05-20T13:21:54.934Z,22.40
2023-05-20T13:24:41.776Z,22.30
2023-05-20T13:27:30.746Z,22.50
2023-05-20T13:30:17.389Z,22.50
2023-05-20T13:33:04.450Z,22.60
2023-05-20T13:35:51.656Z,22.60
2023-05-20T13:38:38.293Z,22.60
2023-05-20T13:41:26.483Z,22.50
2023-05-20T13:44:14.474Z,22.40
2023-05-20T13:47:01.279Z,22.50
2023-05-20T13:49:48.196Z,22.50
2023-05-20T13:52:34.951Z,22.40
2023-05-20T13:55:23.948Z,22.40
2023-05-20T13:58:11.666Z,22.30
2023-05-20T14:01:00.432Z,22.20
2023-05-20T14:03:47.283Z,22.20
2023-05-20T14:06:33.919Z,22.30
2023-05-20T14:09:21.024Z,22.50
2023-05-20T14:12:08.422Z,22.40
2023-05-20T14:14:55.052Z,22.30
2023-05-20T14:17:43.301Z,22.40
2023-05-20T14:20:30.283Z,22.50
2023-05-20T14:23:17.005Z,22.70
2023-05-20T14:26:03.931Z,22.60
2023-05-20T14:28:50.415Z,22.50
2023-05-20T14:31:38.597Z,22.30
2023-05-20T14:34:27.268Z,22.20
2023-05-20T14:37:15.401Z,22.20
2023-05-20T14:40:02.932Z,22.40
2023-05-20T14:42:49.451Z,22.50
2023-05-20T14:45:36.343Z,22.50
2023-05-20T14:48:23.465Z,22.70
2023-05-20T14:51:11.688Z,22.70
2023-05-20T14:53:58.684Z,22.80
2023-05-20T14:56:46.660Z,22.80
2023-05-20T14:59:34.550Z,22.70
2023-05-20T15:02:21.066Z,22.70
2023-05-20T15:05:08.680Z,22.80
2023-05-20T15:07:56.763Z,22.80
2023-05-20T15:10:43.565Z,22.70
2023-05-20T15:13:30.426Z,22.80
2023-05-20T15:16:19.170Z,23.00
2023-05-20T15:19:06.036Z,23.10
2023-05-20T15:21:52.554Z,23.00
2023-05-20T15:24:40.774Z,22.90
2023-05-20T15:27:27.762Z,23.00
2023-05-20T15:30:15.731Z,22.90
2023-05-20T15:33:02.880Z,22.90
2023-05-20T15:35:49.444Z,22.90
2023-05-20T15:38:36.321Z,22.80
2023-05-20T15:41:23.969Z,22.70
2023-05-20T15:44:11.918Z,22.70
2023-05-20T15:46:58.648Z,22.70
2023-05-20T15:49:45.148Z,22.70
2023-05-20T15:52:32.030Z,22.80
2023-05-20T15:55:18.940Z,22.90
2023-05-20T15:58:07.073Z,22.80
2023-05-20T16:00:53.704Z,22.70
2023-05-20T16:03:41.537Z,22.70
2023-05-20T16:06:28.077Z,22.70
2023-05-20T16:09:14.926Z,22.80
2023-05-20T16:12:02.211Z,22.80
2023-05-20T16:14:50.954Z,22.80
2023-05-20T16:17:38.176Z,22.80
2023-05-20T16:20:25.138Z,22.90
2023-05-20T16:23:11.878Z,23.00
2023-05-20T16:25:58.342Z,23.00
2023-05-20T16:28:45.471Z,23.20
2023-05-20T16:31:33.587Z,23.20
2023-05-20T16:34:20.336Z,23.20
2023-05-20T16:37:07.225Z,23.10
2023-05-20T16:39:54.093Z,23.00
2023-05-20T16:42:42.251Z,22.90
2023-05-20T16:45:28.927Z,22.90
2023-05-20T16:48:17.131Z,22.90
2023-05-20T16:51:03.944Z,22.90
2023-05-20T16:53:50.834Z,22.80
2023-05-20T16:56:37.672Z,22.80
2023-05-20T16:59:28.463Z,22.80
2023-05-20T17:02:15.643Z,22.70
2023-05-20T17:05:04.351Z,22.60
2023-05-20T17:07:51.146Z,22.50
2023-05-20T17:10:38.125Z,22.40
2023-05-20T17:13:24.544Z,22.40
2023-05-20T17:16:12.129Z,22.30
2023-05-20T17:18:59.071Z,22.20
2023-05-20T17:21:47.307Z,22.20
2023-05-20T17:24:35.072Z,22.10
2023-05-20T17:27:21.966Z,22.10
2023-05-20T17:30:09.747Z,22.10
2023-05-20T17:32:57.772Z,22.10
2023-05-20T17:35:44.387Z,22.00
2023-05-20T17:38:32.532Z,22.00
2023-05-20T17:41:19.072Z,21.90
2023-05-20T17:44:06.131Z,22.00
2023-05-20T17:46:52.484Z,21.90
2023-05-20T17:49:38.962Z,21.80
2023-05-20T17:52:25.884Z,21.90
2023-05-20T17:55:14.449Z,21.80
2023-05-20T17:58:01.812Z,21.80
2023-05-20T18:00:48.775Z,21.70
2023-05-20T18:03:35.816Z,21.70
2023-05-20T18:06:23.063Z,21.60
2023-05-20T18:09:09.899Z,21.50
2023-05-20T18:11:57.910Z,21.50
2023-05-20T18:14:44.642Z,21.50
2023-05-20T18:17:31.271Z,21.40
2023-05-20T18:20:18.186Z,21.40
2023-05-20T18:23:05.061Z,21.40
2023-05-20T18:25:51.828Z,21.40
2023-05-20T18:28:40.515Z,21.40
2023-05-20T18:31:27.478Z,21.40
2023-05-20T18:34:16.116Z,21.30
2023-05-20T18:37:02.888Z,21.30
2023-05-20T18:39:49.714Z,21.20
2023-05-20T18:42:36.542Z,21.20
2023-05-20T18:45:24.944Z,21.00
2023-05-20T18:48:15.822Z,20.90
2023-05-20T18:51:07.146Z,20.80
2023-05-20T18:53:54.054Z,20.70
2023-05-20T18:56:41.591Z,20.60
2023-05-20T18:59:28.559Z,20.50
2023-05-20T19:02:17.428Z,20.40
2023-05-20T19:05:04.270Z,20.30
2023-05-20T19:07:51.289Z,20.20
2023-05-20T19:10:38.178Z,20.20
2023-05-20T19:13:25.068Z,20.20
2023-05-20T19:16:11.991Z,20.10
2023-05-20T19:19:00.337Z,20.10
2023-05-20T19:21:46.990Z,20.10
2023-05-20T19:24:33.913Z,19.90
2023-05-20T19:27:20.858Z,19.90
2023-05-20T19:30:10.899Z,19.80
2023-05-20T19:32:58.077Z,19.70
2023-05-20T19:35:46.231Z,19.70
2023-05-20T19:38:33.141Z,19.70
2023-05-20T19:41:20.064Z,19.70
2023-05-20T19:44:07.381Z,19.50
2023-05-20T19:46:54.773Z,19.50
2023-05-20T19:49:41.681Z,19.40
2023-05-20T19:52:29.906Z,19.40
2023-05-20T19:55:16.868Z,19.40
2023-05-20T19:58:03.708Z,19.40
2023-05-20T20:00:50.468Z,19.20
2023-05-20T20:03:37.271Z,19.30
2023-05-20T20:06:23.825Z,19.30
2023-05-20T20:09:11.921Z,19.20
2023-05-20T20:11:58.524Z,19.20
2023-05-20T20:14:46.099Z,19.20
2023-05-20T20:17:33.564Z,19.10
2023-05-20T20:20:20.480Z,19.20
2023-05-20T20:23:07.830Z,19.20
2023-05-20T20:25:56.463Z,19.30
2023-05-20T20:28:43.150Z,19.30
2023-05-20T20:31:29.481Z,19.40
2023-05-20T20:34:16.387Z,19.40
2023-05-20T20:37:03.340Z,19.40
2023-05-20T20:39:50.507Z,19.30
2023-05-20T20:42:38.517Z,19.20
2023-05-20T20:45:25.234Z,19.30
2023-05-20T20:48:12.015Z,19.20
2023-05-20T20:50:59.118Z,19.10
2023-05-20T20:53:46.403Z,19.00
2023-05-20T20:56:37.142Z,19.00
2023-05-20T20:59:26.475Z,18.90
2023-05-20T21:02:13.122Z,18.90
2023-05-20T21:05:02.015Z,18.90
2023-05-20T21:07:50.209Z,18.80
2023-05-20T21:10:38.208Z,18.80
2023-05-20T21:13:24.781Z,18.70
2023-05-20T21:16:13.178Z,18.70
2023-05-20T21:19:00.005Z,18.60
2023-05-20T21:21:46.725Z,18.60
2023-05-20T21:24:33.622Z,18.50
2023-05-20T21:27:20.165Z,18.60
2023-05-20T21:30:07.943Z,18.50
2023-05-20T21:32:55.847Z,18.60
2023-05-20T21:35:42.708Z,18.40
2023-05-20T21:38:29.612Z,18.40
2023-05-20T21:41:16.797Z,18.40
2023-05-20T21:44:03.849Z,18.50
2023-05-20T21:46:50.952Z,18.30
2023-05-20T21:49:39.013Z,18.30
2023-05-20T21:52:25.740Z,18.30
2023-05-20T21:55:12.607Z,18.20
2023-05-20T21:57:59.333Z,18.20
2023-05-20T22:00:46.198Z,18.20
2023-05-20T22:03:33.640Z,18.20
2023-05-20T22:06:22.331Z,18.10
2023-05-20T22:09:09.499Z,18.20
2023-05-20T22:11:56.187Z,18.20
2023-05-20T22:14:43.085Z,18.20
2023-05-20T22:17:30.485Z,18.00
2023-05-20T22:20:17.395Z,17.90
2023-05-20T22:23:05.880Z,17.80
2023-05-20T22:25:52.833Z,17.80
2023-05-20T22:28:39.826Z,17.80
2023-05-20T22:31:27.033Z,17.80
2023-05-20T22:34:13.784Z,17.90
2023-05-20T22:37:00.805Z,17.70
2023-05-20T22:39:49.146Z,17.70
2023-05-20T22:42:36.153Z,17.80
2023-05-20T22:45:22.926Z,17.90
2023-05-20T22:48:09.887Z,17.90
2023-05-20T22:50:57.029Z,17.80
2023-05-20T22:53:43.572Z,17.70
2023-05-20T22:56:32.551Z,17.50
2023-05-20T22:59:19.396Z,17.50
2023-05-20T23:02:06.730Z,17.50
2023-05-20T23:04:53.801Z,17.50
2023-05-20T23:07:40.887Z,17.50
2023-05-20T23:10:27.828Z,17.40
2023-05-20T23:13:16.281Z,17.40
2023-05-20T23:16:05.956Z,17.20
2023-05-20T23:18:52.872Z,17.10
2023-05-20T23:21:39.963Z,17.20
2023-05-20T23:24:26.656Z,17.20
2023-05-20T23:27:13.539Z,17.20
2023-05-20T23:30:02.037Z,17.20
2023-05-20T23:32:48.969Z,17.20
2023-05-20T23:35:35.780Z,17.20
2023-05-20T23:38:22.695Z,17.00
2023-05-20T23:41:09.212Z,16.80
2023-05-20T23:43:55.925Z,16.80
2023-05-20T23:46:44.820Z,16.80
2023-05-20T23:49:32.077Z,16.90
2023-05-20T23:52:18.661Z,16.80
2023-05-20T23:55:06.109Z,17.00
2023-05-20T23:57:52.804Z,16.90
